createdAt,value
2018-07-14T04:00:32.893Z,61.88
2018-07-14T04:01:32.925Z,67.50
2018-07-14T04:02:32.860Z,67.50
2018-07-14T04:03:32.849Z,67.50
2018-07-14T04:04:32.848Z,73.12
2018-07-14T04:05:32.857Z,73.12
2018-07-14T04:06:32.853Z,73.12
2018-07-14T04:07:32.796Z,73.12
2018-07-14T04:08:32.786Z,78.75
2018-07-14T04:09:32.781Z,78.75
2018-07-14T04:10:32.767Z,78.75
2018-07-14T04:11:32.761Z,84.38
2018-07-14T04:12:32.745Z,84.38
2018-07-14T04:13:32.732Z,84.38
2018-07-14T04:14:32.722Z,90.00
2018-07-14T04:15:32.714Z,90.00
2018-07-14T04:16:32.731Z,90.00
2018-07-14T04:17:32.688Z,95.62
2018-07-14T04:18:32.674Z,95.62
2018-07-14T04:19:32.668Z,95.62
2018-07-14T04:20:32.652Z,101.25
2018-07-14T04:21:32.642Z,101.25
2018-07-14T04:22:32.646Z,101.25
2018-07-14T04:23:32.619Z,106.88
2018-07-14T04:24:32.616Z,106.88
2018-07-14T04:25:32.620Z,106.88
2018-07-14T04:26:32.586Z,106.88
2018-07-14T04:27:32.593Z,112.50
2018-07-14T04:28:32.562Z,112.50
2018-07-14T04:29:32.553Z,112.50
2018-07-14T04:30:32.543Z,118.12
2018-07-14T04:31:32.565Z,118.12
2018-07-14T04:32:32.531Z,118.12
2018-07-14T04:33:32.510Z,123.75
2018-07-14T04:34:32.499Z,123.75
2018-07-14T04:35:32.496Z,123.75
2018-07-14T04:36:32.480Z,129.38
2018-07-14T04:37:32.519Z,129.38
2018-07-14T04:38:32.460Z,129.38
2018-07-14T04:39:32.445Z,129.38
2018-07-14T04:40:32.445Z,135.00
2018-07-14T04:41:32.427Z,135.00
2018-07-14T04:42:32.539Z,135.00
2018-07-14T04:43:32.404Z,140.62
2018-07-14T04:44:32.394Z,140.62
2018-07-14T04:45:32.381Z,140.62
2018-07-14T04:46:32.372Z,146.25
2018-07-14T04:47:32.369Z,146.25
2018-07-14T04:48:32.346Z,146.25
2018-07-14T04:49:32.342Z,151.88
2018-07-14T04:50:32.323Z,151.88
2018-07-14T04:51:32.309Z,151.88
2018-07-14T04:52:32.345Z,157.50
2018-07-14T04:53:32.286Z,157.50
2018-07-14T04:54:32.285Z,157.50
2018-07-14T04:55:32.267Z,163.12
2018-07-14T04:56:32.262Z,163.12
2018-07-14T04:57:32.264Z,168.75
2018-07-14T04:58:32.274Z,168.75
2018-07-14T04:59:32.226Z,168.75
2018-07-14T05:00:32.210Z,174.38
2018-07-14T05:01:32.199Z,174.38
2018-07-14T05:02:32.197Z,174.38
2018-07-14T05:03:32.181Z,180.00
2018-07-14T05:04:32.168Z,180.00
2018-07-14T05:05:32.154Z,185.62
2018-07-14T05:06:32.223Z,185.62
2018-07-14T05:07:32.131Z,185.62
2018-07-14T05:08:32.135Z,191.25
2018-07-14T05:09:32.110Z,191.25
2018-07-14T05:10:32.099Z,191.25
2018-07-14T05:11:32.090Z,196.88
2018-07-14T05:12:32.078Z,196.88
2018-07-14T05:13:32.083Z,202.50
2018-07-14T05:14:32.053Z,202.50
2018-07-14T05:15:32.045Z,202.50
2018-07-14T05:16:32.034Z,202.50
2018-07-14T05:17:32.044Z,208.12
2018-07-14T05:18:32.023Z,208.12
2018-07-14T05:19:32.002Z,208.12
2018-07-14T05:20:31.989Z,213.75
2018-07-14T05:21:31.980Z,213.75
2018-07-14T05:22:32.032Z,213.75
2018-07-14T05:23:31.970Z,219.38
2018-07-14T05:24:31.951Z,219.38
2018-07-14T05:25:31.936Z,219.38
2018-07-14T05:26:31.921Z,225.00
2018-07-14T05:27:31.909Z,225.00
2018-07-14T05:28:31.928Z,225.00
2018-07-14T05:29:31.891Z,225.00
2018-07-14T05:30:31.877Z,230.62
2018-07-14T05:31:31.875Z,230.62
2018-07-14T05:32:31.856Z,230.62
2018-07-14T05:33:31.874Z,236.25
2018-07-14T05:34:31.837Z,236.25
2018-07-14T05:35:31.823Z,236.25
2018-07-14T05:36:31.817Z,241.88
2018-07-14T05:37:31.802Z,241.88
2018-07-14T05:38:31.812Z,241.88
2018-07-14T05:39:31.835Z,247.50
2018-07-14T05:40:31.766Z,247.50
2018-07-14T05:41:31.772Z,247.50
2018-07-14T05:42:31.747Z,253.12
2018-07-14T05:43:31.754Z,253.12
2018-07-14T05:44:31.757Z,253.12
2018-07-14T05:45:31.715Z,258.75
2018-07-14T05:46:31.701Z,258.75
2018-07-14T05:47:31.689Z,258.75
2018-07-14T05:48:31.691Z,264.38
2018-07-14T05:49:31.780Z,264.38
2018-07-14T05:50:31.662Z,264.38
2018-07-14T05:51:31.648Z,270.00
2018-07-14T05:52:31.635Z,270.00
2018-07-14T05:53:31.644Z,270.00
2018-07-14T05:54:31.622Z,275.62
2018-07-14T05:55:31.600Z,275.62
2018-07-14T05:56:31.596Z,275.62
2018-07-14T05:57:31.588Z,281.25
2018-07-14T05:58:31.574Z,281.25
2018-07-14T05:59:31.570Z,286.88
2018-07-14T06:00:31.546Z,292.50
2018-07-14T06:01:31.544Z,303.75
2018-07-14T06:02:31.528Z,365.62
2018-07-14T06:03:31.524Z,483.75
2018-07-14T06:04:31.516Z,551.25
2018-07-14T06:05:31.506Z,579.38
2018-07-14T06:06:31.480Z,585.00
2018-07-14T06:07:31.469Z,590.62
2018-07-14T06:08:31.459Z,596.25
2018-07-14T06:09:31.458Z,601.88
2018-07-14T06:10:31.437Z,607.50
2018-07-14T06:11:31.425Z,613.12
2018-07-14T06:12:31.416Z,624.38
2018-07-14T06:13:31.403Z,630.00
2018-07-14T06:14:31.401Z,641.25
2018-07-14T06:15:31.389Z,641.25
2018-07-14T06:16:31.367Z,652.50
2018-07-14T06:17:31.381Z,658.12
2018-07-14T06:18:31.348Z,669.38
2018-07-14T06:19:31.395Z,675.00
2018-07-14T06:20:31.337Z,680.62
2018-07-14T06:21:31.311Z,691.88
2018-07-14T06:22:31.309Z,697.50
2018-07-14T06:23:31.290Z,714.38
2018-07-14T06:24:31.296Z,708.75
2018-07-14T06:25:31.273Z,714.38
2018-07-14T06:26:31.256Z,731.25
2018-07-14T06:27:31.286Z,793.12
2018-07-14T06:28:31.236Z,866.25
2018-07-14T06:29:31.249Z,2385.00
2018-07-14T06:30:31.213Z,2452.50
2018-07-14T06:31:31.202Z,2368.12
2018-07-14T06:32:31.190Z,2520.00
2018-07-14T06:33:31.181Z,2593.12
2018-07-14T06:34:31.182Z,2621.25
2018-07-14T06:35:31.157Z,2671.88
2018-07-14T06:36:31.147Z,2722.50
2018-07-14T06:37:31.175Z,2750.62
2018-07-14T06:38:31.182Z,2790.00
2018-07-14T06:39:31.127Z,2823.75
2018-07-14T06:40:31.104Z,2846.25
2018-07-14T06:41:31.101Z,2880.00
2018-07-14T06:42:31.083Z,2868.75
2018-07-14T06:43:31.073Z,2829.38
2018-07-14T06:44:31.080Z,2880.00
2018-07-14T06:45:31.053Z,2947.50
2018-07-14T06:46:31.038Z,2964.38
2018-07-14T06:47:31.029Z,2711.25
2018-07-14T06:48:31.016Z,2306.25
2018-07-14T06:49:31.003Z,1192.50
2018-07-14T06:50:31.006Z,810.00
2018-07-14T06:51:30.983Z,810.00
2018-07-14T06:52:30.971Z,888.75
2018-07-14T06:53:30.969Z,871.88
2018-07-14T06:54:30.954Z,888.75
2018-07-14T06:55:30.985Z,883.12
2018-07-14T06:56:30.943Z,894.38
2018-07-14T06:57:30.913Z,900.00
2018-07-14T06:58:30.924Z,900.00
2018-07-14T06:59:30.893Z,911.25
2018-07-14T07:00:30.892Z,928.12
2018-07-14T07:01:30.868Z,1209.38
2018-07-14T07:02:30.856Z,1344.38
2018-07-14T07:03:30.846Z,1080.00
2018-07-14T07:04:30.834Z,1265.62
2018-07-14T07:05:30.835Z,2126.25
2018-07-14T07:06:30.814Z,2238.75
2018-07-14T07:07:30.806Z,2064.38
2018-07-14T07:08:30.796Z,2655.00
2018-07-14T07:09:30.781Z,3380.62
2018-07-14T07:10:30.780Z,3611.25
2018-07-14T07:11:30.761Z,3645.00
2018-07-14T07:12:30.752Z,3695.62
2018-07-14T07:13:30.737Z,3723.75
2018-07-14T07:14:30.727Z,3757.50
2018-07-14T07:15:30.727Z,3796.88
2018-07-14T07:16:30.708Z,3819.38
2018-07-14T07:17:30.695Z,3847.50
2018-07-14T07:18:30.685Z,3881.25
2018-07-14T07:19:30.674Z,3898.12
2018-07-14T07:20:30.672Z,3931.88
2018-07-14T07:21:30.717Z,3943.12
2018-07-14T07:22:30.642Z,3976.88
2018-07-14T07:23:30.630Z,3993.75
2018-07-14T07:24:30.622Z,3988.12
2018-07-14T07:25:30.625Z,3999.38
2018-07-14T07:26:30.600Z,4027.50
2018-07-14T07:27:30.587Z,4038.75
2018-07-14T07:28:30.577Z,4044.38
2018-07-14T07:29:30.563Z,4066.88
2018-07-14T07:30:30.564Z,4083.75
2018-07-14T07:31:30.548Z,4117.50
2018-07-14T07:32:30.531Z,4145.62
2018-07-14T07:33:30.523Z,4168.12
2018-07-14T07:34:30.513Z,4168.12
2018-07-14T07:35:30.518Z,4213.12
2018-07-14T07:36:30.488Z,4230.00
2018-07-14T07:37:30.480Z,4258.12
2018-07-14T07:38:30.469Z,4258.12
2018-07-14T07:39:30.456Z,4263.75
2018-07-14T07:40:30.447Z,4269.38
2018-07-14T07:41:30.446Z,4291.88
2018-07-14T07:42:30.423Z,4314.38
2018-07-14T07:43:30.422Z,4291.88
2018-07-14T07:44:30.402Z,4291.88
2018-07-14T07:45:30.390Z,4286.25
2018-07-14T07:46:30.390Z,4308.75
2018-07-14T07:47:30.371Z,4297.50
2018-07-14T07:48:30.357Z,4320.00
2018-07-14T07:49:30.348Z,4353.75
2018-07-14T07:50:30.341Z,4314.38
2018-07-14T07:51:30.340Z,4308.75
2018-07-14T07:52:30.315Z,4342.50
2018-07-14T07:53:30.307Z,4314.38
2018-07-14T07:54:30.293Z,4331.25
2018-07-14T07:55:30.287Z,4353.75
2018-07-14T07:56:30.286Z,4336.88
2018-07-14T07:57:30.263Z,4342.50
2018-07-14T07:58:30.255Z,4359.38
2018-07-14T07:59:30.239Z,4370.62
2018-07-14T08:00:30.253Z,4387.50
2018-07-14T08:01:30.233Z,4415.62
2018-07-14T08:02:30.205Z,4471.88
2018-07-14T08:03:30.195Z,4466.25
2018-07-14T08:04:30.189Z,4528.12
2018-07-14T08:05:30.174Z,4539.38
2018-07-14T08:06:30.178Z,4556.25
2018-07-14T08:07:30.151Z,4584.38
2018-07-14T08:08:30.147Z,4601.25
2018-07-14T08:09:30.130Z,4601.25
2018-07-14T08:10:30.119Z,4651.88
2018-07-14T08:11:30.121Z,4668.75
2018-07-14T08:12:30.102Z,4674.38
2018-07-14T08:13:30.089Z,4713.75
2018-07-14T08:14:30.078Z,4719.38
2018-07-14T08:15:30.066Z,4741.88
2018-07-14T08:16:30.067Z,4725.00
2018-07-14T08:17:30.043Z,4741.88
2018-07-14T08:18:30.043Z,4764.38
2018-07-14T08:19:30.026Z,4775.62
2018-07-14T08:20:30.013Z,4747.50
2018-07-14T08:21:30.024Z,4786.88
2018-07-14T08:22:29.990Z,4815.00
2018-07-14T08:23:29.981Z,4798.12
2018-07-14T08:24:29.967Z,4826.25
2018-07-14T08:25:29.957Z,4815.00
2018-07-14T08:26:29.956Z,4854.38
2018-07-14T08:27:29.962Z,4860.00
2018-07-14T08:28:29.926Z,4871.25
2018-07-14T08:29:29.916Z,4871.25
2018-07-14T08:30:29.909Z,4882.50
2018-07-14T08:31:29.896Z,4910.62
2018-07-14T08:32:29.948Z,4927.50
2018-07-14T08:33:29.873Z,4950.00
2018-07-14T08:34:29.860Z,4950.00
2018-07-14T08:35:29.850Z,4955.62
2018-07-14T08:36:29.848Z,4983.75
2018-07-14T08:37:29.845Z,5011.88
2018-07-14T08:38:29.823Z,5006.25
2018-07-14T08:39:29.807Z,5000.62
2018-07-14T08:40:29.802Z,5017.50
2018-07-14T08:41:29.793Z,4983.75
2018-07-14T08:42:29.792Z,5040.00
2018-07-14T08:43:29.767Z,5028.75
2018-07-14T08:44:29.756Z,5068.12
2018-07-14T08:45:29.744Z,5040.00
2018-07-14T08:46:29.740Z,5062.50
2018-07-14T08:47:29.732Z,5085.00
2018-07-14T08:48:29.709Z,5096.25
2018-07-14T08:49:29.700Z,5079.38
2018-07-14T08:50:29.734Z,5124.38
2018-07-14T08:51:29.738Z,5118.75
2018-07-14T08:52:29.685Z,5146.88
2018-07-14T08:53:29.665Z,5141.25
2018-07-14T08:54:29.646Z,5141.25
2018-07-14T08:55:29.637Z,5146.88
2018-07-14T08:56:29.624Z,5180.62
2018-07-14T08:57:29.625Z,5197.50
2018-07-14T08:58:29.607Z,5197.50
2018-07-14T08:59:29.594Z,5158.12
2018-07-14T09:00:29.599Z,5203.12
2018-07-14T09:01:29.570Z,5298.75
2018-07-14T09:02:29.572Z,5310.00
2018-07-14T09:03:29.567Z,5287.50
2018-07-14T09:04:29.537Z,5332.50
2018-07-14T09:05:29.528Z,5355.00
2018-07-14T09:06:29.517Z,5388.75
2018-07-14T09:07:29.519Z,5388.75
2018-07-14T09:08:29.503Z,5377.50
2018-07-14T09:09:29.483Z,5377.50
2018-07-14T09:10:29.470Z,5422.50
2018-07-14T09:11:29.464Z,5456.25
2018-07-14T09:12:29.452Z,5428.12
2018-07-14T09:13:29.455Z,5411.25
2018-07-14T09:14:29.427Z,5456.25
2018-07-14T09:15:29.419Z,5439.38
2018-07-14T09:16:29.449Z,5484.38
2018-07-14T09:17:29.399Z,5490.00
2018-07-14T09:18:29.399Z,5506.88
2018-07-14T09:19:29.380Z,5574.38
2018-07-14T09:20:29.364Z,5911.88
2018-07-14T09:21:29.356Z,6283.12
2018-07-14T09:22:29.343Z,6384.38
2018-07-14T09:23:29.344Z,6345.00
2018-07-14T09:24:29.324Z,6378.75
2018-07-14T09:25:29.312Z,6373.12
2018-07-14T09:26:29.301Z,6463.12
2018-07-14T09:27:29.288Z,6508.12
2018-07-14T09:28:29.291Z,6508.12
2018-07-14T09:29:29.267Z,6513.75
2018-07-14T09:30:29.257Z,6581.25
2018-07-14T09:31:29.246Z,6598.12
2018-07-14T09:32:29.248Z,6631.88
2018-07-14T09:33:29.238Z,6693.75
2018-07-14T09:34:29.211Z,6783.75
2018-07-14T09:35:29.202Z,6783.75
2018-07-14T09:36:29.197Z,6721.88
2018-07-14T09:37:29.180Z,6575.62
2018-07-14T09:38:29.181Z,6536.25
2018-07-14T09:39:29.160Z,6581.25
2018-07-14T09:40:29.147Z,6721.88
2018-07-14T09:41:29.144Z,6778.12
2018-07-14T09:42:29.127Z,6991.88
2018-07-14T09:43:29.128Z,7076.25
2018-07-14T09:44:29.117Z,6975.00
2018-07-14T09:45:29.099Z,6969.38
2018-07-14T09:46:29.083Z,6907.50
2018-07-14T09:47:29.072Z,6975.00
2018-07-14T09:48:29.074Z,6800.62
2018-07-14T09:49:29.051Z,6738.75
2018-07-14T09:50:29.039Z,6541.88
2018-07-14T09:51:29.029Z,6384.38
2018-07-14T09:52:29.017Z,5653.12
2018-07-14T09:53:29.020Z,6013.12
2018-07-14T09:54:29.001Z,5484.38
2018-07-14T09:55:28.998Z,4398.75
2018-07-14T09:56:28.976Z,4005.00
2018-07-14T09:57:28.965Z,2300.62
2018-07-14T09:58:28.967Z,2874.38
2018-07-14T09:59:28.944Z,1715.62
2018-07-14T10:00:28.933Z,2581.88
2018-07-14T10:01:28.923Z,2953.12
2018-07-14T10:02:28.909Z,2176.88
2018-07-14T10:03:29.001Z,4005.00
2018-07-14T10:04:28.888Z,4488.75
2018-07-14T10:05:28.882Z,3841.88
2018-07-14T10:06:28.867Z,3515.62
2018-07-14T10:07:28.856Z,3588.75
2018-07-14T10:08:28.855Z,4809.38
2018-07-14T10:09:28.845Z,5416.88
2018-07-14T10:10:28.826Z,1552.50
2018-07-14T10:11:28.812Z,5287.50
2018-07-14T10:12:28.803Z,2424.38
2018-07-14T10:13:28.790Z,978.75
2018-07-14T10:14:28.790Z,736.88
2018-07-14T10:15:28.771Z,725.62
2018-07-14T10:16:28.771Z,675.00
2018-07-14T10:17:28.762Z,646.88
2018-07-14T10:18:28.735Z,658.12
2018-07-14T10:19:28.735Z,635.62
2018-07-14T10:20:28.716Z,624.38
2018-07-14T10:21:28.707Z,601.88
2018-07-14T10:22:28.694Z,585.00
2018-07-14T10:23:28.688Z,562.50
2018-07-14T10:24:28.684Z,545.62
2018-07-14T10:25:28.717Z,540.00
2018-07-14T10:26:28.656Z,534.38
2018-07-14T10:27:28.639Z,534.38
2018-07-14T10:28:28.628Z,534.38
2018-07-14T10:29:28.631Z,534.38
2018-07-14T10:30:28.610Z,528.75
2018-07-14T10:31:28.604Z,517.50
2018-07-14T10:32:28.592Z,500.62
2018-07-14T10:33:28.594Z,483.75
2018-07-14T10:34:28.585Z,466.88
2018-07-14T10:35:28.559Z,466.88
2018-07-14T10:36:28.543Z,455.62
2018-07-14T10:37:28.539Z,450.00
2018-07-14T10:38:28.527Z,444.38
2018-07-14T10:39:28.528Z,444.38
2018-07-14T10:40:28.498Z,455.62
2018-07-14T10:41:28.492Z,461.25
2018-07-14T10:42:28.543Z,461.25
2018-07-14T10:43:28.471Z,455.62
2018-07-14T10:44:28.467Z,444.38
2018-07-14T10:45:28.444Z,438.75
2018-07-14T10:46:28.434Z,433.12
2018-07-14T10:47:28.424Z,427.50
2018-07-14T10:48:28.413Z,433.12
2018-07-14T10:49:28.422Z,433.12
2018-07-14T10:50:28.395Z,438.75
2018-07-14T10:51:28.448Z,438.75
2018-07-14T10:52:28.374Z,444.38
2018-07-14T10:53:28.363Z,461.25
2018-07-14T10:54:28.355Z,483.75
2018-07-14T10:55:28.364Z,495.00
2018-07-14T10:56:28.326Z,500.62
2018-07-14T10:57:28.317Z,495.00
2018-07-14T10:58:28.304Z,489.38
2018-07-14T10:59:28.300Z,483.75
2018-07-14T11:00:28.297Z,483.75
2018-07-14T11:01:28.271Z,472.50
2018-07-14T11:02:28.264Z,472.50
2018-07-14T11:03:28.255Z,466.88
2018-07-14T11:04:28.276Z,461.25
2018-07-14T11:05:28.244Z,455.62
2018-07-14T11:06:28.219Z,450.00
2018-07-14T11:07:28.206Z,450.00
2018-07-14T11:08:28.195Z,450.00
2018-07-14T11:09:28.199Z,450.00
2018-07-14T11:10:28.187Z,450.00
2018-07-14T11:11:28.164Z,444.38
2018-07-14T11:12:28.155Z,438.75
2018-07-14T11:13:28.146Z,433.12
2018-07-14T11:14:28.133Z,427.50
2018-07-14T11:15:28.136Z,427.50
2018-07-14T11:16:28.111Z,433.12
2018-07-14T11:17:28.104Z,433.12
2018-07-14T11:18:28.091Z,438.75
2018-07-14T11:19:28.080Z,450.00
2018-07-14T11:20:28.083Z,472.50
2018-07-14T11:21:28.081Z,495.00
2018-07-14T11:22:28.048Z,528.75
2018-07-14T11:23:28.038Z,551.25
2018-07-14T11:24:28.024Z,551.25
2018-07-14T11:25:28.028Z,523.12
2018-07-14T11:26:28.005Z,495.00
2018-07-14T11:27:28.077Z,472.50
2018-07-14T11:28:27.982Z,461.25
2018-07-14T11:29:27.970Z,450.00
2018-07-14T11:30:27.969Z,450.00
2018-07-14T11:31:27.949Z,466.88
2018-07-14T11:32:27.937Z,495.00
2018-07-14T11:33:27.930Z,495.00
2018-07-14T11:34:27.918Z,506.25
2018-07-14T11:35:27.916Z,523.12
2018-07-14T11:36:27.894Z,523.12
2018-07-14T11:37:28.041Z,523.12
2018-07-14T11:38:27.875Z,517.50
2018-07-14T11:39:27.864Z,511.88
2018-07-14T11:40:27.853Z,506.25
2018-07-14T11:41:27.855Z,500.62
2018-07-14T11:42:27.833Z,511.88
2018-07-14T11:43:27.818Z,523.12
2018-07-14T11:44:27.808Z,551.25
2018-07-14T11:45:27.800Z,562.50
2018-07-14T11:46:27.799Z,562.50
2018-07-14T11:47:27.803Z,551.25
2018-07-14T11:48:27.767Z,540.00
2018-07-14T11:49:27.757Z,540.00
2018-07-14T11:50:27.744Z,551.25
2018-07-14T11:51:27.745Z,562.50
2018-07-14T11:52:27.724Z,568.12
2018-07-14T11:53:27.713Z,579.38
2018-07-14T11:54:27.701Z,573.75
2018-07-14T11:55:27.693Z,562.50
2018-07-14T11:56:27.701Z,556.88
2018-07-14T11:57:27.669Z,534.38
2018-07-14T11:58:27.659Z,511.88
2018-07-14T11:59:27.648Z,517.50
2018-07-14T12:00:27.637Z,517.50
2018-07-14T12:01:27.734Z,506.25
2018-07-14T12:02:27.617Z,506.25
2018-07-14T12:03:27.602Z,489.38
2018-07-14T12:04:27.592Z,489.38
2018-07-14T12:05:27.589Z,472.50
2018-07-14T12:06:27.581Z,506.25
2018-07-14T12:07:27.564Z,540.00
2018-07-14T12:08:27.599Z,568.12
2018-07-14T12:09:27.543Z,573.75
2018-07-14T12:10:27.529Z,562.50
2018-07-14T12:11:27.541Z,579.38
2018-07-14T12:12:27.614Z,630.00
2018-07-14T12:13:27.563Z,646.88
2018-07-14T12:14:27.488Z,646.88
2018-07-14T12:15:27.476Z,624.38
2018-07-14T12:16:27.581Z,585.00
2018-07-14T12:17:27.453Z,556.88
2018-07-14T12:18:27.603Z,511.88
2018-07-14T12:19:27.535Z,483.75
2018-07-14T12:20:27.425Z,489.38
2018-07-14T12:21:27.423Z,466.88
2018-07-14T12:22:27.471Z,450.00
2018-07-14T12:23:27.391Z,444.38
2018-07-14T12:24:27.381Z,427.50
2018-07-14T12:25:27.416Z,410.62
2018-07-14T12:26:27.391Z,388.12
2018-07-14T12:27:27.346Z,365.62
2018-07-14T12:28:27.338Z,360.00
2018-07-14T12:29:27.325Z,365.62
2018-07-14T12:30:27.340Z,354.38
2018-07-14T12:31:27.303Z,343.12
2018-07-14T12:32:27.306Z,331.88
2018-07-14T12:33:27.288Z,320.62
2018-07-14T12:34:27.275Z,320.62
2018-07-14T12:35:27.264Z,315.00
2018-07-14T12:36:27.272Z,309.38
2018-07-14T12:37:27.256Z,303.75
2018-07-14T12:38:27.231Z,298.12
2018-07-14T12:39:27.215Z,315.00
2018-07-14T12:40:27.207Z,315.00
2018-07-14T12:41:27.196Z,309.38
2018-07-14T12:42:27.195Z,298.12
2018-07-14T12:43:27.348Z,303.75
2018-07-14T12:44:27.167Z,309.38
2018-07-14T12:45:27.154Z,315.00
2018-07-14T12:46:27.142Z,320.62
2018-07-14T12:47:27.149Z,320.62
2018-07-14T12:48:27.125Z,315.00
2018-07-14T12:49:27.114Z,309.38
2018-07-14T12:50:27.099Z,303.75
2018-07-14T12:51:27.089Z,298.12
2018-07-14T12:52:27.104Z,298.12
2018-07-14T12:53:27.067Z,292.50
2018-07-14T12:54:27.056Z,292.50
2018-07-14T12:55:27.046Z,286.88
2018-07-14T12:56:27.037Z,286.88
2018-07-14T12:57:27.024Z,281.25
2018-07-14T12:58:27.038Z,281.25
2018-07-14T12:59:27.006Z,281.25
2018-07-14T13:00:26.992Z,292.50
2018-07-14T13:01:26.979Z,298.12
2018-07-14T13:02:26.970Z,292.50
2018-07-14T13:03:26.972Z,298.12
2018-07-14T13:04:26.947Z,303.75
2018-07-14T13:05:26.938Z,309.38
2018-07-14T13:06:26.954Z,315.00
2018-07-14T13:07:26.915Z,320.62
2018-07-14T13:08:26.916Z,326.25
2018-07-14T13:09:26.897Z,331.88
2018-07-14T13:10:26.886Z,343.12
2018-07-14T13:11:26.875Z,360.00
2018-07-14T13:12:26.865Z,382.50
2018-07-14T13:13:26.864Z,388.12
2018-07-14T13:14:26.839Z,382.50
2018-07-14T13:15:26.830Z,382.50
2018-07-14T13:16:26.819Z,393.75
2018-07-14T13:17:26.809Z,416.25
2018-07-14T13:18:26.809Z,438.75
2018-07-14T13:19:26.786Z,433.12
2018-07-14T13:20:26.775Z,433.12
2018-07-14T13:21:26.769Z,433.12
2018-07-14T13:22:26.756Z,461.25
2018-07-14T13:23:26.753Z,483.75
2018-07-14T13:24:26.733Z,483.75
2018-07-14T13:25:26.721Z,450.00
2018-07-14T13:26:26.712Z,421.88
2018-07-14T13:27:26.701Z,388.12
2018-07-14T13:28:26.708Z,371.25
2018-07-14T13:29:26.682Z,371.25
2018-07-14T13:30:26.669Z,354.38
2018-07-14T13:31:26.658Z,326.25
2018-07-14T13:32:26.645Z,303.75
2018-07-14T13:33:26.646Z,298.12
2018-07-14T13:34:26.632Z,298.12
2018-07-14T13:35:26.615Z,298.12
2018-07-14T13:36:26.609Z,298.12
2018-07-14T13:37:26.594Z,298.12
2018-07-14T13:38:26.610Z,303.75
2018-07-14T13:39:26.590Z,303.75
2018-07-14T13:40:26.561Z,303.75
2018-07-14T13:41:26.548Z,286.88
2018-07-14T13:42:26.544Z,275.62
2018-07-14T13:43:26.526Z,270.00
2018-07-14T13:44:26.533Z,270.00
2018-07-14T13:45:26.506Z,264.38
2018-07-14T13:46:26.495Z,258.75
2018-07-14T13:47:26.485Z,258.75
2018-07-14T13:48:26.473Z,264.38
2018-07-14T13:49:26.476Z,264.38
2018-07-14T13:50:26.455Z,270.00
2018-07-14T13:51:26.441Z,264.38
2018-07-14T13:52:26.432Z,270.00
2018-07-14T13:53:26.424Z,264.38
2018-07-14T13:54:26.444Z,264.38
2018-07-14T13:55:26.399Z,270.00
2018-07-14T13:56:26.387Z,281.25
2018-07-14T13:57:26.374Z,309.38
2018-07-14T13:58:26.364Z,326.25
2018-07-14T13:59:26.359Z,320.62
2018-07-14T14:00:26.390Z,315.00
2018-07-14T14:01:26.332Z,303.75
2018-07-14T14:02:26.337Z,292.50
2018-07-14T14:03:26.316Z,275.62
2018-07-14T14:04:26.304Z,270.00
2018-07-14T14:05:26.300Z,275.62
2018-07-14T14:06:26.278Z,270.00
2018-07-14T14:07:26.269Z,275.62
2018-07-14T14:08:26.258Z,275.62
2018-07-14T14:09:26.264Z,281.25
2018-07-14T14:10:26.249Z,315.00
2018-07-14T14:11:26.399Z,348.75
2018-07-14T14:12:26.217Z,360.00
2018-07-14T14:13:26.202Z,354.38
2018-07-14T14:14:26.192Z,348.75
2018-07-14T14:15:26.192Z,354.38
2018-07-14T14:16:26.170Z,365.62
2018-07-14T14:17:26.161Z,337.50
2018-07-14T14:18:26.149Z,309.38
2018-07-14T14:19:26.137Z,292.50
2018-07-14T14:20:26.137Z,281.25
2018-07-14T14:21:26.117Z,270.00
2018-07-14T14:22:26.105Z,264.38
2018-07-14T14:23:26.092Z,258.75
2018-07-14T14:24:26.086Z,253.12
2018-07-14T14:25:26.090Z,253.12
2018-07-14T14:26:26.068Z,253.12
2018-07-14T14:27:26.081Z,253.12
2018-07-14T14:28:26.041Z,258.75
2018-07-14T14:29:26.038Z,253.12
2018-07-14T14:30:26.031Z,253.12
2018-07-14T14:31:26.008Z,258.75
2018-07-14T14:32:25.998Z,270.00
2018-07-14T14:33:25.998Z,270.00
2018-07-14T14:34:25.978Z,264.38
2018-07-14T14:35:25.964Z,270.00
2018-07-14T14:36:25.975Z,270.00
2018-07-14T14:37:25.945Z,281.25
2018-07-14T14:38:25.932Z,275.62
2018-07-14T14:39:25.923Z,286.88
2018-07-14T14:40:25.914Z,270.00
2018-07-14T14:41:25.917Z,253.12
2018-07-14T14:42:25.892Z,241.88
2018-07-14T14:43:25.880Z,236.25
2018-07-14T14:44:25.870Z,230.62
2018-07-14T14:45:25.857Z,230.62
2018-07-14T14:46:25.861Z,225.00
2018-07-14T14:47:25.836Z,225.00
2018-07-14T14:48:25.825Z,225.00
2018-07-14T14:49:25.814Z,225.00
2018-07-14T14:50:25.806Z,225.00
2018-07-14T14:51:25.828Z,225.00
2018-07-14T14:52:25.798Z,236.25
2018-07-14T14:53:25.771Z,236.25
2018-07-14T14:54:25.764Z,230.62
2018-07-14T14:55:25.752Z,230.62
2018-07-14T14:56:25.740Z,236.25
2018-07-14T14:57:25.741Z,236.25
2018-07-14T14:58:25.721Z,230.62
2018-07-14T14:59:25.713Z,230.62
2018-07-14T15:00:25.699Z,236.25
2018-07-14T15:01:25.684Z,236.25
2018-07-14T15:02:25.683Z,236.25
2018-07-14T15:03:25.673Z,241.88
2018-07-14T15:04:25.656Z,247.50
2018-07-14T15:05:25.641Z,258.75
2018-07-14T15:06:25.629Z,241.88
2018-07-14T15:07:25.631Z,236.25
2018-07-14T15:08:25.608Z,230.62
2018-07-14T15:09:25.601Z,225.00
2018-07-14T15:10:25.586Z,219.38
2018-07-14T15:11:25.584Z,213.75
2018-07-14T15:12:25.584Z,213.75
2018-07-14T15:13:25.553Z,213.75
2018-07-14T15:14:25.544Z,219.38
2018-07-14T15:15:25.537Z,213.75
2018-07-14T15:16:25.565Z,219.38
2018-07-14T15:17:25.525Z,219.38
2018-07-14T15:18:27.496Z,219.38
2018-07-14T15:19:25.512Z,225.00
2018-07-14T15:20:25.479Z,225.00
2018-07-14T15:21:25.471Z,241.88
2018-07-14T15:22:25.483Z,253.12
2018-07-14T15:23:25.445Z,264.38
2018-07-14T15:24:25.435Z,270.00
2018-07-14T15:25:25.424Z,264.38
2018-07-14T15:26:25.417Z,258.75
2018-07-14T15:27:25.407Z,247.50
2018-07-14T15:28:25.427Z,247.50
2018-07-14T15:29:25.388Z,258.75
2018-07-14T15:30:25.390Z,264.38
2018-07-14T15:31:25.360Z,270.00
2018-07-14T15:32:25.529Z,270.00
2018-07-14T15:33:25.525Z,270.00
2018-07-14T15:34:27.359Z,281.25
2018-07-14T15:35:25.323Z,286.88
2018-07-14T15:36:25.307Z,286.88
2018-07-14T15:37:25.296Z,286.88
2018-07-14T15:38:25.288Z,298.12
2018-07-14T15:39:25.285Z,298.12
2018-07-14T15:40:25.265Z,292.50
2018-07-14T15:41:25.281Z,281.25
2018-07-14T15:42:25.242Z,270.00
2018-07-14T15:43:25.238Z,258.75
2018-07-14T15:44:25.235Z,236.25
2018-07-14T15:45:25.211Z,225.00
2018-07-14T15:46:25.207Z,213.75
2018-07-14T15:47:25.187Z,208.12
2018-07-14T15:48:25.176Z,202.50
2018-07-14T15:49:25.181Z,202.50
2018-07-14T15:50:25.156Z,202.50
2018-07-14T15:51:25.147Z,202.50
2018-07-14T15:52:25.141Z,208.12
2018-07-14T15:53:25.123Z,219.38
2018-07-14T15:54:25.130Z,225.00
2018-07-14T15:55:25.103Z,219.38
2018-07-14T15:56:25.090Z,208.12
2018-07-14T15:57:25.081Z,202.50
2018-07-14T15:58:25.078Z,202.50
2018-07-14T15:59:25.075Z,202.50
2018-07-14T16:00:25.156Z,196.88
2018-07-14T16:01:25.038Z,185.62
2018-07-14T16:02:25.025Z,185.62
2018-07-14T16:03:25.021Z,185.62
2018-07-14T16:04:25.069Z,185.62
2018-07-14T16:05:24.995Z,185.62
2018-07-14T16:06:24.984Z,185.62
2018-07-14T16:07:24.973Z,185.62
2018-07-14T16:08:24.968Z,185.62
2018-07-14T16:09:24.954Z,180.00
2018-07-14T16:10:24.969Z,185.62
2018-07-14T16:11:24.937Z,185.62
2018-07-14T16:12:24.923Z,185.62
2018-07-14T16:13:24.915Z,185.62
2018-07-14T16:14:24.902Z,185.62
2018-07-14T16:15:24.904Z,180.00
2018-07-14T16:16:24.878Z,180.00
2018-07-14T16:17:24.870Z,180.00
2018-07-14T16:18:24.853Z,180.00
2018-07-14T16:19:24.843Z,180.00
2018-07-14T16:20:24.859Z,180.00
2018-07-14T16:21:24.822Z,180.00
2018-07-14T16:22:24.810Z,180.00